Terminal Aerodrome Forecast
Issued by NWS Charleston, SC

Home | Current Version | Previous Version | Text Only | Print | Product List | Glossary On
Versions: 1 2 3 4 5 6 7 8 9 10 11 12 13 14 15 16 17 18 19 20 21 22 23 24
000
FTUS42 KCHS 200500
TAFCHS
TAF
KCHS 200534Z 2006/2106 06008KT P6SM -RA SCT015 OVC090
     FM201200 04012G17KT P6SM SCT035 BKN070
      TEMPO 2014/2018 5SM SHRA BKN025 OVC080
     FM201800 05011G17KT 6SM -SHRA SCT015 BKN035
     FM210200 36007KT P6SM SCT025 BKN100=

USA.gov is the U.S. government's official web portal to all federal, state and local government web resources and services.